Time;durP1;ratioP1;P1;durP2;ratioP2;P2;SDS_P1;SDS_P2;PMS_P1;PMS_P2;Temp;Humidity;BMP_temperature;BMP_pressure;BME280_temperature;BME280_humidity;BME280_pressure;Samples;Min_cycle;Max_cycle;Signal;HPM_P1;HPM_P2
2022/11/13 00:02:06;;;;;;;64.97;28.98;;;;;;;;;;6276038;22;20000;-77
2022/11/13 00:04:32;;;;;;;69.03;30.85;;;;;;;;;;6247855;22;20007;-77
2022/11/13 00:06:57;;;;;;;69.68;32.22;;;;;;;;;;6274684;22;20042;-79
2022/11/13 00:09:23;;;;;;;73.70;31.83;;;;;;;;;;6273613;22;20004;-78
2022/11/13 00:11:48;;;;;;;65.72;31.58;;;;;;;;;;6273649;22;20019;-77
2022/11/13 00:14:14;;;;;;;62.88;29.65;;;;;;;;;;6273621;22;20082;-77
2022/11/13 00:16:39;;;;;;;68.15;31.75;;;;;;;;;;6274707;22;20054;-78
2022/11/13 00:19:04;;;;;;;70.82;32.47;;;;;;;;;;6273043;22;20008;-77
2022/11/13 00:21:30;;;;;;;72.68;34.45;;;;;;;;;;6274680;22;20427;-77
2022/11/13 00:23:55;;;;;;;72.78;32.85;;;;;;;;;;6274667;22;20353;-77
2022/11/13 00:26:22;;;;;;;75.00;33.08;;;;;;;;;;6273114;22;20393;-78
2022/11/13 00:28:55;;;;;;;75.32;36.17;;;;;;;;;;6274315;22;20038;-78
2022/11/13 00:31:21;;;;;;;77.82;35.03;;;;;;;;;;6273235;22;20004;-77
2022/11/13 00:33:47;;;;;;;77.47;34.78;;;;;;;;;;6274881;22;20053;-78
2022/11/13 00:36:17;;;;;;;77.88;33.67;;;;;;;;;;6223190;22;20004;-77
2022/11/13 00:38:42;;;;;;;84.10;34.55;;;;;;;;;;6274622;22;20007;-77
2022/11/13 00:41:08;;;;;;;83.43;35.13;;;;;;;;;;6274515;22;20000;-77
2022/11/13 00:43:33;;;;;;;87.00;35.55;;;;;;;;;;6274158;22;20078;-78
2022/11/13 00:45:59;;;;;;;83.00;37.00;;;;;;;;;;6274764;22;20007;-78
2022/11/13 00:48:24;;;;;;;89.65;41.00;;;;;;;;;;6273353;22;19995;-78
2022/11/13 00:50:50;;;;;;;86.10;38.85;;;;;;;;;;6273415;22;20031;-78
2022/11/13 00:53:15;;;;;;;88.53;39.42;;;;;;;;;;6273399;22;20054;-77
2022/11/13 00:55:44;;;;;;;75.80;37.97;;;;;;;;;;6273436;22;20000;-78
2022/11/13 00:58:10;;;;;;;80.38;38.10;;;;;;;;;;6273224;22;19996;-77
2022/11/13 01:00:36;;;;;;;73.55;36.75;;;;;;;;;;6275574;22;20057;-77
2022/11/13 01:03:01;;;;;;;78.93;37.05;;;;;;;;;;6280987;22;20004;-78
2022/11/13 01:05:27;;;;;;;75.78;35.30;;;;;;;;;;6276345;22;20014;-78
2022/11/13 01:07:52;;;;;;;79.50;37.97;;;;;;;;;;6276311;22;20024;-78
2022/11/13 01:10:18;;;;;;;76.53;37.00;;;;;;;;;;6276339;22;20011;-78
2022/11/13 01:12:44;;;;;;;77.38;38.85;;;;;;;;;;6276038;22;20066;-78
2022/11/13 01:15:09;;;;;;;89.28;39.80;;;;;;;;;;6276180;22;19996;-77
2022/11/13 01:17:35;;;;;;;100.88;40.05;;;;;;;;;;6252393;22;20074;-77
2022/11/13 01:20:00;;;;;;;80.75;38.67;;;;;;;;;;6249563;22;20007;-79
2022/11/13 01:22:26;;;;;;;82.55;38.40;;;;;;;;;;6276176;22;20446;-78
2022/11/13 01:24:51;;;;;;;96.82;40.70;;;;;;;;;;6249148;22;20516;-78
2022/11/13 01:27:17;;;;;;;90.82;39.40;;;;;;;;;;6248823;22;20426;-78
2022/11/13 01:29:42;;;;;;;89.32;39.65;;;;;;;;;;6223937;22;20000;-78
2022/11/13 01:32:07;;;;;;;94.80;40.60;;;;;;;;;;6249150;22;20011;-77
2022/11/13 01:34:33;;;;;;;101.20;42.55;;;;;;;;;;6276225;22;20078;-78
2022/11/13 01:36:58;;;;;;;97.63;41.05;;;;;;;;;;6281801;22;20003;-78
2022/11/13 01:39:24;;;;;;;82.25;37.60;;;;;;;;;;6276553;22;20071;-78
2022/11/13 01:41:49;;;;;;;82.35;37.50;;;;;;;;;;6248757;22;20057;-78
2022/11/13 01:44:16;;;;;;;77.68;35.55;;;;;;;;;;6248989;22;20008;-77
2022/11/13 01:46:49;;;;;;;63.88;32.03;;;;;;;;;;6276030;22;19996;-78
2022/11/13 01:49:21;;;;;;;60.53;30.20;;;;;;;;;;6224562;22;20422;-78
2022/11/13 01:52:01;;;;;;;58.83;29.33;;;;;;;;;;6276042;22;20087;-79
2022/11/13 01:54:38;;;;;;;53.63;28.42;;;;;;;;;;6248894;22;20023;-78
2022/11/13 01:57:03;;;;;;;53.65;27.23;;;;;;;;;;6227306;22;20031;-78
2022/11/13 01:59:38;;;;;;;49.90;25.52;;;;;;;;;;6249141;22;20010;-78
2022/11/13 02:02:03;;;;;;;51.55;27.17;;;;;;;;;;6223834;22;20000;-78
2022/11/13 02:04:29;;;;;;;47.47;25.88;;;;;;;;;;6262163;22;20026;-78
2022/11/13 02:07:03;;;;;;;46.83;25.52;;;;;;;;;;6248900;22;19996;-78
2022/11/13 02:09:41;;;;;;;51.22;25.67;;;;;;;;;;6274094;22;20030;-78
2022/11/13 02:12:09;;;;;;;45.28;24.88;;;;;;;;;;6250257;22;20000;-78
2022/11/13 02:14:35;;;;;;;47.70;26.10;;;;;;;;;;6274410;22;20094;-77
2022/11/13 02:17:03;;;;;;;51.28;24.33;;;;;;;;;;6249302;22;20000;-78
2022/11/13 02:19:41;;;;;;;48.75;24.88;;;;;;;;;;6275121;22;20015;-78
2022/11/13 02:22:22;;;;;;;50.35;25.58;;;;;;;;;;6248916;22;20078;-78
2022/11/13 02:24:48;;;;;;;49.60;25.25;;;;;;;;;;6250960;22;20008;-78
2022/11/13 02:27:46;;;;;;;47.53;25.83;;;;;;;;;;6274242;22;20405;-77
2022/11/13 02:30:20;;;;;;;46.60;24.60;;;;;;;;;;6248588;22;20003;-78
2022/11/13 02:32:47;;;;;;;51.30;25.48;;;;;;;;;;6274668;22;20012;-77
2022/11/13 02:35:13;;;;;;;48.63;25.10;;;;;;;;;;6248811;22;20004;-78
2022/11/13 02:37:39;;;;;;;46.92;24.88;;;;;;;;;;6275914;22;20010;-78
2022/11/13 02:40:05;;;;;;;45.80;24.35;;;;;;;;;;6275934;22;20027;-75
2022/11/13 02:42:30;;;;;;;47.42;24.50;;;;;;;;;;6273909;22;20007;-76
2022/11/13 02:44:55;;;;;;;47.58;25.60;;;;;;;;;;6275833;22;20039;-76
2022/11/13 02:47:21;;;;;;;45.78;24.77;;;;;;;;;;6275312;22;20003;-76
2022/11/13 02:49:46;;;;;;;44.17;23.52;;;;;;;;;;6274212;22;20015;-76
2022/11/13 02:52:12;;;;;;;47.25;25.35;;;;;;;;;;6275448;22;19999;-76
2022/11/13 02:54:37;;;;;;;44.33;25.15;;;;;;;;;;6275075;22;20014;-76
2022/11/13 02:57:02;;;;;;;43.80;24.60;;;;;;;;;;6248484;22;20007;-77
2022/11/13 02:59:28;;;;;;;46.60;24.73;;;;;;;;;;6275557;22;20014;-77
2022/11/13 03:01:55;;;;;;;50.00;25.15;;;;;;;;;;6273833;22;20000;-76
2022/11/13 03:04:20;;;;;;;43.70;24.38;;;;;;;;;;6275080;22;20109;-77
2022/11/13 03:06:45;;;;;;;46.70;23.60;;;;;;;;;;6273996;22;20415;-76
2022/11/13 03:09:11;;;;;;;47.10;24.35;;;;;;;;;;6273319;22;20031;-76
2022/11/13 03:11:36;;;;;;;45.55;24.40;;;;;;;;;;6274108;22;20053;-76
2022/11/13 03:14:02;;;;;;;43.85;25.25;;;;;;;;;;6273722;22;20010;-76
2022/11/13 03:16:27;;;;;;;50.35;26.30;;;;;;;;;;6275630;22;20000;-76
2022/11/13 03:18:54;;;;;;;43.92;24.33;;;;;;;;;;6274068;22;20003;-77
2022/11/13 03:21:20;;;;;;;43.85;23.60;;;;;;;;;;6253784;22;20010;-77
2022/11/13 03:23:45;;;;;;;43.20;22.92;;;;;;;;;;6273221;22;20008;-76
2022/11/13 03:26:12;;;;;;;44.17;23.88;;;;;;;;;;6273363;22;20000;-76
2022/11/13 03:28:37;;;;;;;43.20;24.65;;;;;;;;;;6248266;22;20023;-76
2022/11/13 03:31:03;;;;;;;42.72;22.85;;;;;;;;;;6273503;22;20026;-77
2022/11/13 03:33:29;;;;;;;44.75;23.77;;;;;;;;;;6273567;22;20003;-76
2022/11/13 03:35:54;;;;;;;45.70;23.38;;;;;;;;;;6273858;22;20004;-77
2022/11/13 03:38:20;;;;;;;42.85;21.92;;;;;;;;;;6274647;22;20411;-77
2022/11/13 03:40:46;;;;;;;44.28;23.05;;;;;;;;;;6248905;22;20007;-77
2022/11/13 03:43:11;;;;;;;40.95;23.35;;;;;;;;;;6273986;22;20100;-77
2022/11/13 03:45:36;;;;;;;45.05;23.38;;;;;;;;;;6275074;22;20619;-77
2022/11/13 03:48:02;;;;;;;41.65;22.88;;;;;;;;;;6273558;22;20056;-77
2022/11/13 03:50:27;;;;;;;39.97;23.20;;;;;;;;;;6274867;22;19999;-76
2022/11/13 03:52:53;;;;;;;40.63;22.83;;;;;;;;;;6273389;22;20315;-77
2022/11/13 03:55:18;;;;;;;43.70;23.30;;;;;;;;;;6273507;22;20004;-77
2022/11/13 03:57:45;;;;;;;44.55;23.58;;;;;;;;;;6275534;22;19996;-77
2022/11/13 04:00:11;;;;;;;43.85;23.38;;;;;;;;;;6248156;22;20038;-76
2022/11/13 04:02:37;;;;;;;42.33;23.25;;;;;;;;;;6275404;22;20003;-76
2022/11/13 04:05:02;;;;;;;44.25;22.75;;;;;;;;;;6282096;22;20011;-78
2022/11/13 04:07:28;;;;;;;46.60;23.35;;;;;;;;;;6279432;22;20015;-77
2022/11/13 04:09:53;;;;;;;41.25;23.10;;;;;;;;;;6277615;22;20002;-77
2022/11/13 04:12:18;;;;;;;42.78;23.80;;;;;;;;;;6274628;22;20004;-77
2022/11/13 04:14:44;;;;;;;49.95;25.90;;;;;;;;;;6274702;22;20012;-77
2022/11/13 04:17:09;;;;;;;45.50;24.95;;;;;;;;;;6248237;22;19999;-78
2022/11/13 04:19:35;;;;;;;52.38;26.25;;;;;;;;;;6273084;22;20398;-77
2022/11/13 04:22:00;;;;;;;49.75;26.83;;;;;;;;;;6279238;22;20320;-77
2022/11/13 04:24:26;;;;;;;48.72;25.10;;;;;;;;;;6276430;22;20038;-77
2022/11/13 04:26:51;;;;;;;51.45;26.25;;;;;;;;;;6274650;22;20061;-77
2022/11/13 04:29:16;;;;;;;57.60;27.50;;;;;;;;;;6274694;22;20086;-77
2022/11/13 04:31:42;;;;;;;56.75;26.13;;;;;;;;;;6274942;22;20050;-77
2022/11/13 04:34:07;;;;;;;50.38;25.25;;;;;;;;;;6274760;22;19999;-77
2022/11/13 04:36:33;;;;;;;50.08;26.65;;;;;;;;;;6272794;22;20091;-77
2022/11/13 04:38:58;;;;;;;50.17;25.40;;;;;;;;;;6274568;22;20422;-77
2022/11/13 04:44:07;;;;;;;47.50;24.45;;;;;;;;;;6280085;22;20508;-77
2022/11/13 04:46:33;;;;;;;48.58;25.55;;;;;;;;;;6274790;22;20008;-77
2022/11/13 04:48:58;;;;;;;46.42;23.85;;;;;;;;;;6273016;22;20000;-77
2022/11/13 04:51:24;;;;;;;49.47;25.20;;;;;;;;;;6273649;22;20023;-76
2022/11/13 04:53:49;;;;;;;45.65;24.80;;;;;;;;;;6274412;22;20328;-76
2022/11/13 04:56:14;;;;;;;48.15;25.58;;;;;;;;;;6273210;22;20030;-77
2022/11/13 04:58:40;;;;;;;43.72;24.90;;;;;;;;;;6274330;22;20000;-76
2022/11/13 05:01:05;;;;;;;45.80;24.70;;;;;;;;;;6274444;22;20007;-77
2022/11/13 05:03:31;;;;;;;46.63;26.13;;;;;;;;;;6275097;22;20042;-77
2022/11/13 05:06:04;;;;;;;48.28;25.95;;;;;;;;;;6277982;22;20003;-78
2022/11/13 05:08:29;;;;;;;47.50;25.50;;;;;;;;;;6247851;22;20003;-76
2022/11/13 05:10:55;;;;;;;50.00;26.00;;;;;;;;;;6274606;22;20007;-76
2022/11/13 05:13:20;;;;;;;48.67;24.92;;;;;;;;;;6273106;22;20008;-77
2022/11/13 05:15:46;;;;;;;50.92;25.73;;;;;;;;;;6272877;22;20398;-77
2022/11/13 05:18:11;;;;;;;50.13;25.75;;;;;;;;;;6272545;22;19996;-77
2022/11/13 05:20:37;;;;;;;46.30;25.77;;;;;;;;;;6247578;22;20062;-77
2022/11/13 05:23:02;;;;;;;51.20;25.67;;;;;;;;;;6272807;22;20008;-77
2022/11/13 05:25:27;;;;;;;57.95;29.17;;;;;;;;;;6280063;22;20008;-75
2022/11/13 05:27:53;;;;;;;56.38;27.58;;;;;;;;;;6273982;22;20007;-76
2022/11/13 05:30:18;;;;;;;53.13;27.50;;;;;;;;;;6274313;22;20000;-76
2022/11/13 05:32:44;;;;;;;53.17;27.27;;;;;;;;;;6272451;22;20004;-77
2022/11/13 05:35:09;;;;;;;51.47;27.67;;;;;;;;;;6222310;22;20078;-77
2022/11/13 05:37:35;;;;;;;52.08;28.08;;;;;;;;;;6274218;22;19995;-77
2022/11/13 05:40:00;;;;;;;52.75;27.90;;;;;;;;;;6274263;22;20061;-77
2022/11/13 05:42:25;;;;;;;56.60;27.27;;;;;;;;;;6274602;22;20006;-76
2022/11/13 05:44:51;;;;;;;49.58;26.85;;;;;;;;;;6273217;22;20004;-76
2022/11/13 05:47:18;;;;;;;60.38;32.17;;;;;;;;;;6273859;22;20004;-78
2022/11/13 05:49:44;;;;;;;51.20;26.17;;;;;;;;;;6275523;22;20008;-76
2022/11/13 05:52:09;;;;;;;50.95;25.80;;;;;;;;;;6274619;22;20000;-76
2022/11/13 05:54:34;;;;;;;50.53;26.38;;;;;;;;;;6274494;22;20014;-76
2022/11/13 05:57:00;;;;;;;57.97;26.88;;;;;;;;;;6274496;22;20078;-79
2022/11/13 05:59:25;;;;;;;50.70;27.27;;;;;;;;;;6276250;22;20008;-76
2022/11/13 06:01:51;;;;;;;56.83;27.80;;;;;;;;;;6275921;22;20010;-75
2022/11/13 06:04:16;;;;;;;56.05;28.00;;;;;;;;;;6275821;22;20025;-78
2022/11/13 06:06:42;;;;;;;53.53;28.23;;;;;;;;;;6287679;22;20342;-76
2022/11/13 06:09:07;;;;;;;56.55;29.10;;;;;;;;;;6276174;22;20000;-76
2022/11/13 06:11:32;;;;;;;50.88;28.00;;;;;;;;;;6275875;22;20006;-78
2022/11/13 06:13:58;;;;;;;62.67;29.20;;;;;;;;;;6275967;22;20003;-77
2022/11/13 06:16:28;;;;;;;53.50;30.10;;;;;;;;;;6274218;22;20010;-77
2022/11/13 06:18:57;;;;;;;53.90;28.73;;;;;;;;;;6275696;22;20026;-75
2022/11/13 06:21:27;;;;;;;52.85;28.67;;;;;;;;;;6275754;22;19999;-75
2022/11/13 06:23:53;;;;;;;54.22;28.75;;;;;;;;;;6274180;22;20074;-76
2022/11/13 06:26:20;;;;;;;50.15;28.00;;;;;;;;;;6275450;22;20007;-75
2022/11/13 06:28:46;;;;;;;49.88;26.88;;;;;;;;;;6280824;22;19995;-76
2022/11/13 06:31:16;;;;;;;56.35;26.98;;;;;;;;;;6275286;22;20350;-76
2022/11/13 06:33:42;;;;;;;51.15;28.27;;;;;;;;;;6275720;22;20000;-76
2022/11/13 06:36:10;;;;;;;53.33;28.15;;;;;;;;;;6275587;22;20010;-76
2022/11/13 06:38:36;;;;;;;57.85;29.23;;;;;;;;;;6275831;22;20339;-76
2022/11/13 06:41:02;;;;;;;53.72;29.02;;;;;;;;;;6275522;22;20010;-76
2022/11/13 06:43:27;;;;;;;58.45;29.67;;;;;;;;;;6274055;22;20484;-76
2022/11/13 06:45:53;;;;;;;55.95;29.17;;;;;;;;;;6273881;22;20030;-77
2022/11/13 06:48:19;;;;;;;56.05;29.45;;;;;;;;;;6280122;22;20050;-77
2022/11/13 06:50:44;;;;;;;50.20;27.90;;;;;;;;;;6276134;22;20007;-77
2022/11/13 06:53:10;;;;;;;54.10;27.92;;;;;;;;;;6275836;22;20007;-76
2022/11/13 06:55:35;;;;;;;52.90;28.33;;;;;;;;;;6275892;22;20004;-76
2022/11/13 06:58:01;;;;;;;55.30;28.30;;;;;;;;;;6275975;22;20034;-76
2022/11/13 07:00:26;;;;;;;56.95;29.23;;;;;;;;;;6275431;22;20016;-77
2022/11/13 07:02:51;;;;;;;55.92;29.98;;;;;;;;;;6273743;22;20014;-76
2022/11/13 07:05:17;;;;;;;66.10;31.35;;;;;;;;;;6273686;22;20012;-76
2022/11/13 07:07:42;;;;;;;62.95;31.00;;;;;;;;;;6274986;22;20504;-76
2022/11/13 07:10:08;;;;;;;63.75;32.38;;;;;;;;;;6290244;22;20445;-76
2022/11/13 07:12:34;;;;;;;64.93;33.15;;;;;;;;;;6278511;22;20000;-75
2022/11/13 07:14:59;;;;;;;61.72;32.35;;;;;;;;;;6274931;22;20079;-78
2022/11/13 07:17:25;;;;;;;62.35;32.95;;;;;;;;;;6273664;22;19999;-78
2022/11/13 07:19:50;;;;;;;65.68;34.55;;;;;;;;;;6273855;22;20008;-79
2022/11/13 07:22:15;;;;;;;63.20;34.95;;;;;;;;;;6273830;22;20031;-78
2022/11/13 07:24:41;;;;;;;67.30;33.60;;;;;;;;;;6274035;22;20007;-78
2022/11/13 07:27:07;;;;;;;63.00;33.97;;;;;;;;;;6275873;22;20000;-78
2022/11/13 07:29:33;;;;;;;60.30;29.73;;;;;;;;;;6249471;22;20004;-78
2022/11/13 07:31:58;;;;;;;55.78;29.45;;;;;;;;;;6275036;22;20004;-79
2022/11/13 07:34:24;;;;;;;49.80;27.48;;;;;;;;;;6274999;22;20023;-79
2022/11/13 07:36:49;;;;;;;51.95;27.55;;;;;;;;;;6275016;22;20339;-78
2022/11/13 07:39:14;;;;;;;51.17;28.05;;;;;;;;;;6273537;22;20379;-78
2022/11/13 07:41:40;;;;;;;49.30;26.27;;;;;;;;;;6275157;22;20003;-76
2022/11/13 07:44:05;;;;;;;46.95;26.92;;;;;;;;;;6274730;22;20492;-76
2022/11/13 07:46:31;;;;;;;49.13;26.48;;;;;;;;;;6273694;22;20236;-78
2022/11/13 07:48:56;;;;;;;42.85;24.70;;;;;;;;;;6272972;22;20003;-76
2022/11/13 07:51:22;;;;;;;45.63;24.77;;;;;;;;;;6275715;22;20006;-76
2022/11/13 07:53:47;;;;;;;46.45;26.33;;;;;;;;;;6273416;22;20004;-76
2022/11/13 07:56:12;;;;;;;44.13;25.98;;;;;;;;;;6272392;22;19999;-77
2022/11/13 07:58:38;;;;;;;44.70;25.95;;;;;;;;;;6246326;22;20343;-77
2022/11/13 08:01:04;;;;;;;47.17;26.05;;;;;;;;;;6273619;22;20437;-77
2022/11/13 08:03:29;;;;;;;47.42;25.90;;;;;;;;;;6245801;22;20015;-76
2022/11/13 08:06:00;;;;;;;46.95;26.90;;;;;;;;;;6246259;22;20006;-76
2022/11/13 08:08:25;;;;;;;45.53;27.20;;;;;;;;;;6271652;22;20010;-76
2022/11/13 08:10:51;;;;;;;48.70;28.45;;;;;;;;;;6246816;22;20003;-77
2022/11/13 08:13:16;;;;;;;49.17;27.73;;;;;;;;;;6270696;22;20056;-77
2022/11/13 08:15:42;;;;;;;51.60;28.30;;;;;;;;;;6245561;22;20035;-77
2022/11/13 08:18:07;;;;;;;50.97;27.52;;;;;;;;;;6271422;22;20065;-77
2022/11/13 08:20:33;;;;;;;50.88;27.77;;;;;;;;;;6272618;22;19995;-76
2022/11/13 08:22:59;;;;;;;47.97;25.55;;;;;;;;;;6245000;22;20003;-77
2022/11/13 08:25:25;;;;;;;43.72;26.70;;;;;;;;;;6270763;22;20003;-77
2022/11/13 08:27:51;;;;;;;48.15;26.40;;;;;;;;;;6245624;22;20035;-77
2022/11/13 08:30:18;;;;;;;45.55;26.00;;;;;;;;;;6271841;22;20078;-77
2022/11/13 08:32:43;;;;;;;42.55;24.77;;;;;;;;;;6274766;22;20010;-76
2022/11/13 08:35:09;;;;;;;48.33;27.02;;;;;;;;;;6271459;22;20000;-77
2022/11/13 08:37:34;;;;;;;44.55;26.17;;;;;;;;;;6273063;22;20012;-77
2022/11/13 08:40:00;;;;;;;44.63;25.80;;;;;;;;;;6274404;22;20000;-77
2022/11/13 08:42:25;;;;;;;47.42;27.20;;;;;;;;;;6273064;22;20082;-77
2022/11/13 08:44:50;;;;;;;44.83;26.40;;;;;;;;;;6274551;22;20004;-76
2022/11/13 08:47:16;;;;;;;46.67;27.15;;;;;;;;;;6274424;22;20004;-77
2022/11/13 08:49:41;;;;;;;54.47;27.38;;;;;;;;;;6274659;22;20006;-76
2022/11/13 08:52:07;;;;;;;52.20;27.27;;;;;;;;;;6280032;22;20015;-77
2022/11/13 08:54:32;;;;;;;50.42;28.00;;;;;;;;;;6275949;22;20008;-77
2022/11/13 08:56:58;;;;;;;51.92;27.90;;;;;;;;;;6274056;22;20419;-76
2022/11/13 08:59:23;;;;;;;49.47;27.83;;;;;;;;;;6274455;22;20004;-76
2022/11/13 09:01:49;;;;;;;51.42;27.00;;;;;;;;;;6274920;22;20000;-77
2022/11/13 09:04:14;;;;;;;52.78;28.35;;;;;;;;;;6274139;22;20015;-77
2022/11/13 09:06:40;;;;;;;49.97;26.35;;;;;;;;;;6247519;22;20000;-76
2022/11/13 09:09:05;;;;;;;57.13;29.98;;;;;;;;;;6272831;22;20004;-76
2022/11/13 09:11:31;;;;;;;55.08;30.00;;;;;;;;;;6275935;22;19995;-76
2022/11/13 09:13:57;;;;;;;52.75;27.98;;;;;;;;;;6276837;22;20007;-77
2022/11/13 09:16:22;;;;;;;56.17;29.73;;;;;;;;;;6274303;22;20413;-77
2022/11/13 09:18:49;;;;;;;54.38;29.00;;;;;;;;;;6273203;22;20411;-76
2022/11/13 09:21:15;;;;;;;49.58;28.58;;;;;;;;;;6272946;22;20366;-77
2022/11/13 09:23:40;;;;;;;49.45;28.55;;;;;;;;;;6273025;22;20028;-77
2022/11/13 09:26:05;;;;;;;53.78;29.95;;;;;;;;;;6276259;22;20011;-77
2022/11/13 09:28:31;;;;;;;51.08;28.52;;;;;;;;;;6276696;22;19996;-77
2022/11/13 09:30:56;;;;;;;62.25;31.55;;;;;;;;;;6276446;22;20003;-77
2022/11/13 09:33:22;;;;;;;63.30;32.55;;;;;;;;;;6276631;22;20027;-76
2022/11/13 09:35:47;;;;;;;49.00;29.02;;;;;;;;;;6276283;22;20004;-78
2022/11/13 09:38:13;;;;;;;50.35;28.90;;;;;;;;;;6276047;22;20092;-77
2022/11/13 09:40:50;;;;;;;50.80;28.40;;;;;;;;;;6274762;22;20000;-76
2022/11/13 09:43:18;;;;;;;50.42;27.83;;;;;;;;;;6274680;22;20004;-77
2022/11/13 09:45:44;;;;;;;45.78;26.88;;;;;;;;;;6276603;22;20011;-77
2022/11/13 09:48:31;;;;;;;48.05;27.17;;;;;;;;;;6274965;22;20397;-77
2022/11/13 09:50:58;;;;;;;45.63;26.58;;;;;;;;;;6274377;22;20518;-76
2022/11/13 09:53:26;;;;;;;46.65;26.85;;;;;;;;;;6252314;22;20015;-77
2022/11/13 09:56:24;;;;;;;48.33;27.77;;;;;;;;;;6274495;22;20027;-76
2022/11/13 09:59:00;;;;;;;51.15;27.17;;;;;;;;;;6243944;22;20084;-77
2022/11/13 10:01:38;;;;;;;46.20;26.13;;;;;;;;;;6250044;22;20004;-77
2022/11/13 10:04:05;;;;;;;43.38;24.05;;;;;;;;;;6274747;22;20015;-77
2022/11/13 10:06:43;;;;;;;46.78;25.50;;;;;;;;;;6249605;22;20002;-76
2022/11/13 10:09:12;;;;;;;46.35;26.55;;;;;;;;;;6275110;22;20007;-77
2022/11/13 10:11:41;;;;;;;47.28;25.75;;;;;;;;;;6274535;22;20022;-77
2022/11/13 10:14:09;;;;;;;42.10;25.30;;;;;;;;;;6250879;22;20006;-78
2022/11/13 10:16:39;;;;;;;48.33;25.50;;;;;;;;;;6287351;22;20004;-77
2022/11/13 10:19:16;;;;;;;43.78;25.83;;;;;;;;;;6251581;22;20007;-77
2022/11/13 10:21:45;;;;;;;39.78;24.63;;;;;;;;;;6275806;22;19996;-77
2022/11/13 10:24:36;;;;;;;46.27;25.17;;;;;;;;;;6248622;22;20011;-76
2022/11/13 10:27:10;;;;;;;40.30;24.27;;;;;;;;;;6276237;22;20028;-77
2022/11/13 10:29:35;;;;;;;43.78;24.15;;;;;;;;;;6274107;22;20015;-78
2022/11/13 10:32:18;;;;;;;39.65;23.33;;;;;;;;;;6276012;22;20447;-77
2022/11/13 10:34:47;;;;;;;41.40;22.88;;;;;;;;;;6274207;22;20011;-76
2022/11/13 10:37:19;;;;;;;44.60;23.65;;;;;;;;;;6249358;22;20039;-77
2022/11/13 10:39:44;;;;;;;40.15;23.30;;;;;;;;;;6274133;22;20000;-77
2022/11/13 10:42:36;;;;;;;44.03;24.52;;;;;;;;;;6273904;22;20043;-77
2022/11/13 10:45:02;;;;;;;39.97;23.90;;;;;;;;;;6249687;22;20350;-77
2022/11/13 10:47:30;;;;;;;41.60;24.10;;;;;;;;;;6274012;22;20091;-77
2022/11/13 10:49:55;;;;;;;46.28;24.77;;;;;;;;;;6248871;22;20669;-77
2022/11/13 10:52:23;;;;;;;43.38;23.63;;;;;;;;;;6275582;22;20027;-77
2022/11/13 10:54:49;;;;;;;37.05;21.35;;;;;;;;;;6276618;22;20008;-76
2022/11/13 10:57:27;;;;;;;39.60;22.77;;;;;;;;;;6274047;22;20000;-77
2022/11/13 10:59:52;;;;;;;42.83;24.45;;;;;;;;;;6275369;22;20427;-77
2022/11/13 11:02:22;;;;;;;45.38;23.90;;;;;;;;;;6275805;22;20110;-77
2022/11/13 11:04:48;;;;;;;;;;;;;;;;;;6248935;22;20023;-77
2022/11/13 11:07:18;;;;;;;41.50;23.63;;;;;;;;;;6273430;22;20314;-77
2022/11/13 11:09:45;;;;;;;43.78;24.88;;;;;;;;;;6273976;22;20000;-77
2022/11/13 11:12:14;;;;;;;40.75;23.98;;;;;;;;;;6274015;22;20043;-77
2022/11/13 11:15:02;;;;;;;40.53;23.27;;;;;;;;;;6275961;22;20007;-78
2022/11/13 11:17:33;;;;;;;40.47;21.67;;;;;;;;;;6274664;22;20024;-77
2022/11/13 11:20:19;;;;;;;39.25;22.50;;;;;;;;;;6275829;22;20057;-77
2022/11/13 11:22:45;;;;;;;43.67;23.30;;;;;;;;;;6275929;22;20007;-77
2022/11/13 11:25:18;;;;;;;38.90;22.60;;;;;;;;;;6275795;22;19999;-76
2022/11/13 11:27:50;;;;;;;45.05;22.65;;;;;;;;;;6274450;22;20061;-77
2022/11/13 11:30:23;;;;;;;38.78;21.75;;;;;;;;;;6272385;22;19999;-77
2022/11/13 11:33:13;;;;;;;39.70;22.92;;;;;;;;;;6273666;22;20022;-76
2022/11/13 11:36:07;;;;;;;39.72;22.30;;;;;;;;;;6273354;22;20354;-76
2022/11/13 11:39:01;;;;;;;38.50;23.23;;;;;;;;;;6271773;22;20090;-76
2022/11/13 11:41:31;;;;;;;38.45;22.80;;;;;;;;;;6271730;22;20415;-76
2022/11/13 11:44:15;;;;;;;;;;;;;;;;;;6222386;22;20035;-76
2022/11/13 11:46:41;;;;;;;37.20;22.13;;;;;;;;;;6273336;22;20325;-76
2022/11/13 11:49:07;;;;;;;37.85;21.40;;;;;;;;;;6270970;22;20004;-74
2022/11/13 11:51:52;;;;;;;36.10;21.02;;;;;;;;;;6271368;22;20006;-76
2022/11/13 11:54:42;;;;;;;36.35;21.13;;;;;;;;;;6271547;22;20004;-76
2022/11/13 11:57:14;;;;;;;38.95;21.80;;;;;;;;;;6274579;22;20350;-76
2022/11/13 12:00:01;;;;;;;36.08;21.25;;;;;;;;;;6274116;22;20004;-76
2022/11/13 12:02:54;;;;;;;39.10;21.23;;;;;;;;;;6273173;22;20023;-76
2022/11/13 12:05:26;;;;;;;35.75;21.83;;;;;;;;;;6274634;22;20010;-76
2022/11/13 12:07:57;;;;;;;36.50;22.13;;;;;;;;;;6248471;22;19999;-77
2022/11/13 12:10:42;;;;;;;40.78;22.23;;;;;;;;;;6273251;22;20008;-76
2022/11/13 12:13:16;;;;;;;42.38;21.98;;;;;;;;;;6223975;22;20007;-76
2022/11/13 12:16:11;;;;;;;41.33;22.45;;;;;;;;;;6275200;22;20035;-75
2022/11/13 12:18:52;;;;;;;40.03;22.92;;;;;;;;;;6249791;22;20003;-77
2022/11/13 12:21:24;;;;;;;39.80;22.17;;;;;;;;;;6273194;22;20004;-75
2022/11/13 12:23:55;;;;;;;35.75;21.83;;;;;;;;;;6274465;22;20061;-76
2022/11/13 12:26:20;;;;;;;40.80;23.00;;;;;;;;;;6247669;22;20152;-76
2022/11/13 12:28:55;;;;;;;42.58;22.38;;;;;;;;;;6274783;22;19996;-76
2022/11/13 12:31:38;;;;;;;42.42;23.65;;;;;;;;;;6273098;22;19999;-76
2022/11/13 12:34:16;;;;;;;42.45;24.05;;;;;;;;;;6274650;22;20007;-76
2022/11/13 12:36:41;;;;;;;38.45;24.17;;;;;;;;;;6275795;22;20012;-75
2022/11/13 12:39:32;;;;;;;39.72;23.52;;;;;;;;;;6274041;22;20034;-76
2022/11/13 12:42:21;;;;;;;41.38;24.35;;;;;;;;;;6273030;22;20062;-76
2022/11/13 12:45:09;;;;;;;41.95;24.67;;;;;;;;;;6247667;22;20430;-75
2022/11/13 12:47:35;;;;;;;42.95;24.60;;;;;;;;;;6272393;22;20032;-76
2022/11/13 12:50:19;;;;;;;44.05;24.00;;;;;;;;;;6273758;22;20023;-77
2022/11/13 12:52:57;;;;;;;47.17;24.75;;;;;;;;;;6251813;22;20011;-77
2022/11/13 12:55:31;;;;;;;46.38;24.15;;;;;;;;;;6274753;22;20002;-77
2022/11/13 12:58:08;;;;;;;45.90;25.25;;;;;;;;;;6255424;22;20000;-76
2022/11/13 13:00:34;;;;;;;43.90;25.15;;;;;;;;;;6251505;22;20007;-77
2022/11/13 13:03:12;;;;;;;45.58;25.50;;;;;;;;;;6276576;22;20415;-77
2022/11/13 13:05:56;;;;;;;47.33;25.13;;;;;;;;;;6276879;22;20472;-77
2022/11/13 13:08:53;;;;;;;44.33;23.65;;;;;;;;;;6275318;22;20426;-76
2022/11/13 13:11:59;;;;;;;49.00;28.25;;;;;;;;;;6275310;22;20078;-75
2022/11/13 13:14:32;;;;;;;49.33;27.58;;;;;;;;;;6273789;22;20102;-76
2022/11/13 13:17:05;;;;;;;51.15;27.52;;;;;;;;;;6275135;22;20003;-76
2022/11/13 13:19:31;;;;;;;47.70;26.85;;;;;;;;;;6285381;22;20065;-76
2022/11/13 13:21:57;;;;;;;47.65;26.00;;;;;;;;;;6276842;22;20003;-77
2022/11/13 13:24:27;;;;;;;44.10;24.42;;;;;;;;;;6275457;22;20003;-76
2022/11/13 13:26:52;;;;;;;45.35;25.95;;;;;;;;;;6276353;22;19999;-76
2022/11/13 13:29:22;;;;;;;43.60;25.17;;;;;;;;;;6274799;22;19988;-76
2022/11/13 13:31:49;;;;;;;;;;;;;;;;;;6276540;22;20446;-77
2022/11/13 13:34:26;;;;;;;42.90;23.52;;;;;;;;;;6275106;22;19903;-76
2022/11/13 13:37:02;;;;;;;38.55;23.00;;;;;;;;;;6276256;22;20394;-77
2022/11/13 13:39:46;;;;;;;41.25;23.48;;;;;;;;;;6278474;22;20023;-75
2022/11/13 13:42:29;;;;;;;45.78;24.90;;;;;;;;;;6277168;22;20402;-76
2022/11/13 13:45:34;;;;;;;50.20;25.15;;;;;;;;;;6276306;22;20077;-76
2022/11/13 13:47:59;;;;;;;45.35;25.48;;;;;;;;;;6274581;22;20000;-76
2022/11/13 13:50:27;;;;;;;46.75;24.42;;;;;;;;;;6274702;22;20058;-76
2022/11/13 13:52:53;;;;;;;47.55;25.27;;;;;;;;;;6274424;22;20407;-77
2022/11/13 13:55:24;;;;;;;49.90;25.48;;;;;;;;;;6276306;22;20004;-76
2022/11/13 13:57:50;;;;;;;45.70;27.10;;;;;;;;;;6274827;22;20220;-76
2022/11/13 14:00:16;;;;;;;47.33;25.35;;;;;;;;;;6275481;22;20351;-78
2022/11/13 14:02:50;;;;;;;45.42;26.25;;;;;;;;;;6249189;22;19999;-76
2022/11/13 14:05:34;;;;;;;44.40;25.30;;;;;;;;;;6274394;22;20411;-76
2022/11/13 14:08:06;;;;;;;50.20;26.38;;;;;;;;;;6274503;22;20004;-75
2022/11/13 14:10:32;;;;;;;48.60;25.33;;;;;;;;;;6249796;22;20541;-75
2022/11/13 14:12:57;;;;;;;47.38;26.23;;;;;;;;;;6276104;22;20042;-76
2022/11/13 14:15:26;;;;;;;47.30;26.70;;;;;;;;;;6275438;22;20003;-76
2022/11/13 14:18:02;;;;;;;50.23;27.53;;;;;;;;;;6275888;22;20004;-76
2022/11/13 14:20:28;;;;;;;50.63;26.20;;;;;;;;;;6251657;22;20382;-76
2022/11/13 14:22:53;;;;;;;48.83;26.73;;;;;;;;;;6275177;22;20004;-76
2022/11/13 14:25:25;;;;;;;44.97;26.13;;;;;;;;;;6274904;22;20013;-75
2022/11/13 14:27:50;;;;;;;47.58;26.25;;;;;;;;;;6250069;22;20006;-78
2022/11/13 14:30:34;;;;;;;52.97;28.25;;;;;;;;;;6273830;22;20003;-77
2022/11/13 14:33:00;;;;;;;47.03;25.67;;;;;;;;;;6276444;22;20342;-75